createdAt,value
2022-11-28T00:01:34.416Z,134.40
2022-11-28T00:04:01.873Z,129.70
2022-11-28T00:06:29.226Z,135.40
2022-11-28T00:08:59.650Z,129.77
2022-11-28T00:11:27.808Z,131.65
2022-11-28T00:13:55.731Z,130.73
2022-11-28T00:16:24.073Z,135.27
2022-11-28T00:18:53.077Z,132.02
2022-11-28T00:21:21.165Z,132.38
2022-11-28T00:23:49.058Z,138.23
2022-11-28T00:26:20.472Z,125.25
2022-11-28T00:28:47.746Z,138.70
2022-11-28T00:31:26.565Z,125.72
2022-11-28T00:33:54.002Z,128.40
2022-11-28T00:36:22.517Z,130.40
2022-11-28T00:38:50.604Z,121.72
2022-11-28T00:41:21.166Z,122.65
2022-11-28T00:43:49.740Z,127.10
2022-11-28T00:46:18.264Z,125.15
2022-11-28T00:48:45.905Z,131.98
2022-11-28T00:51:14.288Z,132.40
2022-11-28T00:53:43.987Z,127.55
2022-11-28T00:56:13.388Z,136.55
2022-11-28T00:58:41.609Z,136.38
2022-11-28T01:01:17.721Z,125.53
2022-11-28T01:03:45.715Z,126.97
2022-11-28T01:06:19.746Z,120.88
2022-11-28T01:08:46.637Z,126.82
2022-11-28T01:11:14.043Z,126.10
2022-11-28T01:13:41.107Z,133.65
2022-11-28T01:16:09.613Z,126.10
2022-11-28T01:18:37.441Z,124.45
2022-11-28T01:21:06.539Z,128.55
2022-11-28T01:23:35.004Z,127.05
2022-11-28T01:26:03.929Z,113.93
2022-11-28T01:28:30.879Z,113.72
2022-11-28T01:31:03.711Z,138.57
2022-11-28T01:33:30.966Z,120.38
2022-11-28T01:35:59.382Z,123.57
2022-11-28T01:38:27.095Z,118.97
2022-11-28T01:40:55.311Z,118.97
2022-11-28T01:43:23.123Z,129.55
2022-11-28T01:45:51.143Z,129.45
2022-11-28T01:48:26.786Z,128.40
2022-11-28T01:50:58.618Z,116.32
2022-11-28T01:53:31.502Z,136.05
2022-11-28T01:56:43.492Z,124.25
2022-11-28T01:59:12.322Z,129.88
2022-11-28T02:01:39.969Z,116.10
2022-11-28T02:04:07.415Z,121.18
2022-11-28T02:06:35.661Z,117.10
2022-11-28T02:09:02.480Z,123.65
2022-11-28T02:11:56.759Z,122.38
2022-11-28T02:14:52.049Z,120.60
2022-11-28T02:18:05.758Z,120.35
2022-11-28T02:20:51.085Z,124.30
2022-11-28T02:23:40.853Z,124.43
2022-11-28T02:26:35.759Z,121.53
2022-11-28T02:33:03.315Z,124.43
2022-11-28T02:38:52.924Z,121.90
2022-11-28T02:41:44.224Z,117.30
2022-11-28T02:44:16.710Z,123.78
2022-11-28T02:46:53.006Z,123.93
2022-11-28T02:49:26.903Z,114.30
2022-11-28T02:52:00.510Z,116.65
2022-11-28T02:54:28.080Z,123.05
2022-11-28T02:56:55.493Z,122.28
2022-11-28T02:59:48.237Z,122.43
2022-11-28T03:02:23.906Z,104.32
2022-11-28T03:05:06.012Z,116.35
2022-11-28T03:08:10.801Z,107.60
2022-11-28T03:11:02.497Z,123.68
2022-11-28T03:13:50.747Z,108.30
2022-11-28T03:16:30.196Z,116.78
2022-11-28T03:19:19.253Z,126.65
2022-11-28T03:21:55.585Z,125.82
2022-11-28T03:24:52.082Z,128.18
2022-11-28T03:27:25.777Z,141.77
2022-11-28T03:29:57.153Z,126.57
2022-11-28T03:32:31.720Z,131.40
2022-11-28T03:35:14.214Z,133.32
2022-11-28T03:37:49.621Z,129.48
2022-11-28T03:40:22.380Z,140.10
2022-11-28T03:43:17.621Z,124.68
2022-11-28T03:45:49.428Z,127.13
2022-11-28T03:48:46.957Z,121.18
2022-11-28T03:51:18.573Z,121.32
2022-11-28T03:54:00.393Z,130.82
2022-11-28T03:56:40.048Z,117.95
2022-11-28T03:59:16.732Z,115.32
2022-11-28T04:01:49.699Z,114.60
2022-11-28T04:04:35.936Z,120.20
2022-11-28T04:07:06.113Z,124.25
2022-11-28T04:09:45.141Z,123.32
2022-11-28T04:12:26.597Z,116.68
2022-11-28T04:15:00.568Z,107.15
2022-11-28T04:17:33.697Z,117.28
2022-11-28T04:20:12.393Z,112.97
2022-11-28T04:22:49.126Z,108.05
2022-11-28T04:25:18.007Z,116.15
2022-11-28T04:27:50.663Z,112.63
2022-11-28T04:30:17.605Z,102.65
2022-11-28T04:32:50.723Z,108.97
2022-11-28T04:35:29.685Z,118.43
2022-11-28T04:37:58.969Z,107.32
2022-11-28T04:40:29.690Z,108.13
2022-11-28T04:43:02.738Z,117.63
2022-11-28T04:45:35.372Z,97.95
2022-11-28T04:48:02.933Z,121.15
2022-11-28T04:50:47.183Z,99.80
2022-11-28T04:53:25.079Z,111.15
2022-11-28T04:56:03.607Z,100.13
2022-11-28T04:58:43.656Z,105.15
2022-11-28T05:01:16.775Z,106.20
2022-11-28T05:03:44.706Z,98.15
2022-11-28T05:06:26.095Z,100.68
2022-11-28T05:08:53.511Z,106.28
2022-11-28T05:11:20.532Z,114.38
2022-11-28T05:13:47.821Z,107.47
2022-11-28T05:16:15.955Z,112.93
2022-11-28T05:18:44.084Z,105.00
2022-11-28T05:21:11.573Z,88.97
2022-11-28T05:23:44.337Z,91.15
2022-11-28T05:26:17.384Z,81.80
2022-11-28T05:28:46.983Z,96.93
2022-11-28T05:31:14.422Z,92.57
2022-11-28T05:33:42.032Z,92.50
2022-11-28T05:36:13.230Z,99.43
2022-11-28T05:38:41.909Z,94.65
2022-11-28T05:41:10.049Z,101.30
2022-11-28T05:43:37.518Z,99.78
2022-11-28T05:46:06.340Z,94.45
2022-11-28T05:48:34.008Z,108.93
2022-11-28T05:51:03.414Z,110.70
2022-11-28T05:53:30.714Z,104.50
2022-11-28T05:55:57.776Z,121.22
2022-11-28T05:58:24.929Z,121.93
2022-11-28T06:00:51.823Z,107.45
2022-11-28T06:03:18.968Z,101.85
2022-11-28T06:05:46.042Z,115.20
2022-11-28T06:08:13.552Z,125.72
2022-11-28T06:10:41.201Z,117.47
2022-11-28T06:13:08.997Z,117.22
2022-11-28T06:15:38.200Z,117.78
2022-11-28T06:18:06.260Z,106.43
2022-11-28T06:20:35.189Z,128.15
2022-11-28T06:23:02.357Z,117.25
2022-11-28T06:25:29.436Z,119.63
2022-11-28T06:27:56.856Z,115.00
2022-11-28T06:30:23.737Z,114.88
2022-11-28T06:32:50.812Z,105.85
2022-11-28T06:35:36.470Z,118.38
2022-11-28T06:38:03.682Z,113.30
2022-11-28T06:40:30.606Z,105.40
2022-11-28T06:42:57.813Z,113.65
2022-11-28T06:45:24.982Z,108.97
2022-11-28T06:47:52.304Z,93.93
2022-11-28T06:50:19.234Z,89.13
2022-11-28T06:52:46.757Z,90.55
2022-11-28T06:55:14.274Z,81.85
2022-11-28T06:57:41.548Z,92.50
2022-11-28T07:00:09.465Z,89.18
2022-11-28T07:02:37.288Z,95.40
2022-11-28T07:05:04.764Z,89.55
2022-11-28T07:07:32.309Z,93.90
2022-11-28T07:09:59.724Z,105.30
2022-11-28T07:12:26.913Z,94.28
2022-11-28T07:14:54.029Z,101.40
2022-11-28T07:17:21.188Z,99.05
2022-11-28T07:19:54.688Z,98.90
2022-11-28T07:22:22.845Z,107.05
2022-11-28T07:24:50.006Z,95.95
2022-11-28T07:27:17.310Z,104.75
2022-11-28T07:29:44.707Z,118.35
2022-11-28T07:32:12.203Z,98.93
2022-11-28T07:34:41.225Z,93.15
2022-11-28T07:37:08.814Z,83.82
2022-11-28T07:39:35.844Z,76.63
2022-11-28T07:42:03.067Z,86.03
2022-11-28T07:44:30.032Z,88.38
2022-11-28T07:46:57.189Z,91.70
2022-11-28T07:49:24.071Z,94.60
2022-11-28T07:51:51.423Z,100.03
2022-11-28T07:54:18.286Z,92.75
2022-11-28T07:57:11.996Z,87.82
2022-11-28T07:59:32.465Z,93.57
2022-11-28T08:02:00.092Z,99.65
2022-11-28T08:04:27.117Z,91.22
2022-11-28T08:06:54.438Z,103.97
2022-11-28T08:09:21.338Z,91.47
2022-11-28T08:11:49.307Z,90.82
2022-11-28T08:14:16.150Z,80.82
2022-11-28T08:16:45.301Z,84.22
2022-11-28T08:19:12.584Z,81.97
2022-11-28T08:21:39.967Z,87.43
2022-11-28T08:24:08.221Z,75.07
2022-11-28T08:26:36.590Z,75.38
2022-11-28T08:29:04.475Z,70.85
2022-11-28T08:31:49.798Z,80.88
2022-11-28T08:34:17.204Z,75.07
2022-11-28T08:36:44.832Z,84.68
2022-11-28T08:39:28.015Z,86.85
2022-11-28T08:41:57.683Z,76.72
2022-11-28T08:44:27.241Z,79.50
2022-11-28T08:46:54.978Z,84.60
2022-11-28T08:49:22.316Z,82.88
2022-11-28T08:51:49.788Z,81.78
2022-11-28T08:54:16.958Z,77.47
2022-11-28T08:56:45.448Z,76.05
2022-11-28T08:59:12.778Z,93.20
2022-11-28T09:01:39.857Z,74.05
2022-11-28T09:04:07.401Z,85.93
2022-11-28T09:06:34.535Z,73.80
2022-11-28T09:09:03.412Z,82.05
2022-11-28T09:11:30.918Z,72.53
2022-11-28T09:13:59.492Z,81.47
2022-11-28T09:16:26.474Z,79.38
2022-11-28T09:18:54.842Z,72.57
2022-11-28T09:21:22.223Z,81.38
2022-11-28T09:23:49.968Z,74.82
2022-11-28T09:26:20.140Z,69.22
2022-11-28T09:28:47.971Z,72.88
2022-11-28T09:31:16.600Z,71.93
2022-11-28T09:33:45.054Z,66.47
2022-11-28T09:36:15.323Z,62.97
2022-11-28T09:38:43.055Z,62.53
2022-11-28T09:41:28.222Z,58.03
2022-11-28T09:44:01.655Z,67.10
2022-11-28T09:46:34.318Z,61.97
2022-11-28T09:49:07.737Z,63.78
2022-11-28T09:51:51.088Z,64.65
2022-11-28T09:54:37.504Z,62.13
2022-11-28T09:57:12.924Z,57.65
2022-11-28T09:59:41.042Z,61.60
2022-11-28T10:02:28.303Z,58.00
2022-11-28T10:05:24.777Z,53.40
2022-11-28T10:08:13.413Z,52.25
2022-11-28T10:10:50.565Z,60.33
2022-11-28T10:13:32.693Z,53.15
2022-11-28T10:16:35.319Z,57.22
2022-11-28T10:19:16.107Z,56.10
2022-11-28T10:22:02.000Z,49.97
2022-11-28T10:27:05.852Z,47.78
2022-11-28T10:29:47.722Z,54.33
2022-11-28T10:32:18.419Z,52.08
2022-11-28T10:35:28.099Z,57.25
2022-11-28T10:37:56.426Z,52.08
2022-11-28T10:40:45.263Z,55.00
2022-11-28T10:43:31.289Z,56.72
2022-11-28T10:46:24.670Z,47.63
2022-11-28T10:48:56.123Z,40.92
2022-11-28T10:51:37.289Z,49.15
2022-11-28T10:54:38.408Z,45.35
2022-11-28T10:57:26.754Z,43.20
2022-11-28T11:00:06.656Z,50.63
2022-11-28T11:02:57.071Z,49.53
2022-11-28T11:05:30.216Z,50.03
2022-11-28T11:08:02.526Z,45.92
2022-11-28T11:10:51.353Z,49.80
2022-11-28T11:13:27.467Z,50.78
2022-11-28T11:16:01.916Z,51.40
2022-11-28T11:18:35.045Z,54.88
2022-11-28T11:21:17.319Z,49.30
2022-11-28T11:23:45.856Z,53.97
2022-11-28T11:26:41.278Z,50.47
2022-11-28T11:29:29.781Z,53.30
2022-11-28T11:32:03.567Z,51.95
2022-11-28T11:34:36.430Z,47.70
2022-11-28T11:37:23.320Z,64.47
2022-11-28T11:39:53.475Z,59.83
2022-11-28T11:42:26.675Z,55.33
2022-11-28T11:44:57.948Z,51.70
2022-11-28T11:47:44.345Z,51.78
2022-11-28T11:50:20.500Z,56.67
2022-11-28T11:53:07.090Z,47.08
2022-11-28T11:55:45.682Z,52.42
2022-11-28T11:58:17.559Z,58.17
2022-11-28T12:03:28.832Z,58.85
2022-11-28T12:06:16.956Z,62.58
2022-11-28T12:08:51.501Z,63.40
2022-11-28T12:11:45.458Z,61.75
2022-11-28T12:14:22.944Z,57.88
2022-11-28T12:16:57.407Z,64.35
2022-11-28T12:19:46.364Z,64.97
2022-11-28T12:22:40.927Z,61.05
2022-11-28T12:25:18.633Z,68.22
2022-11-28T12:27:50.934Z,57.88
2022-11-28T12:30:26.616Z,61.33
2022-11-28T12:32:56.741Z,58.70
2022-11-28T12:35:42.267Z,68.68
2022-11-28T12:38:31.547Z,51.08
2022-11-28T12:41:10.769Z,66.65
2022-11-28T12:44:19.367Z,52.42
2022-11-28T12:46:58.545Z,62.00
2022-11-28T12:49:37.308Z,52.58
2022-11-28T12:52:37.025Z,59.65
2022-11-28T12:55:22.821Z,74.43
2022-11-28T12:58:21.373Z,69.22
2022-11-28T13:01:06.564Z,65.88
2022-11-28T13:03:49.744Z,50.25
2022-11-28T13:06:31.654Z,53.72
2022-11-28T13:09:30.358Z,49.08
2022-11-28T13:12:15.953Z,53.05
2022-11-28T13:15:08.631Z,56.22
2022-11-28T13:18:05.020Z,52.72
2022-11-28T13:21:07.927Z,55.50
2022-11-28T13:23:43.192Z,52.67
2022-11-28T13:26:41.642Z,50.35
2022-11-28T13:29:17.209Z,55.50
2022-11-28T13:32:01.605Z,54.60
2022-11-28T13:34:31.178Z,53.35
2022-11-28T13:40:18.082Z,53.10
2022-11-28T13:43:03.915Z,54.83
2022-11-28T13:45:41.443Z,55.30
2022-11-28T13:51:33.729Z,70.93
2022-11-28T13:54:22.325Z,59.55
2022-11-28T13:57:09.917Z,54.92
2022-11-28T13:59:38.245Z,56.40
2022-11-28T14:02:32.618Z,60.08
2022-11-28T14:05:00.614Z,78.72
2022-11-28T14:07:33.775Z,365.38
2022-11-28T14:10:30.147Z,55.90
2022-11-28T14:13:40.398Z,59.90
2022-11-28T14:16:14.266Z,67.47
2022-11-28T14:19:11.562Z,59.63
2022-11-28T14:21:57.151Z,58.65
2022-11-28T14:24:52.270Z,56.72
2022-11-28T14:27:30.665Z,50.63
2022-11-28T14:29:58.863Z,62.03
2022-11-28T14:32:42.328Z,55.65
2022-11-28T14:35:52.305Z,51.17
2022-11-28T14:38:33.664Z,49.90
2022-11-28T14:41:03.444Z,50.33
2022-11-28T14:43:38.496Z,56.97
2022-11-28T14:46:29.010Z,57.38
2022-11-28T14:52:00.144Z,54.17
2022-11-28T14:54:43.169Z,53.63
2022-11-28T14:57:16.870Z,50.03
2022-11-28T14:59:45.398Z,50.03
2022-11-28T15:02:12.665Z,60.47
2022-11-28T15:04:51.093Z,55.33
2022-11-28T15:07:33.127Z,49.42
2022-11-28T15:10:14.228Z,59.72
2022-11-28T15:13:09.991Z,51.22
2022-11-28T15:15:47.936Z,49.15
2022-11-28T15:18:19.208Z,55.17
2022-11-28T15:21:01.283Z,57.97
2022-11-28T15:23:36.156Z,63.13
2022-11-28T15:26:03.604Z,55.20
2022-11-28T15:28:34.046Z,53.55
2022-11-28T15:31:04.894Z,60.15
2022-11-28T15:33:33.730Z,65.15
2022-11-28T15:36:10.950Z,55.67
2022-11-28T15:38:41.605Z,47.72
2022-11-28T15:41:09.856Z,63.63
2022-11-28T15:43:42.299Z,55.28
2022-11-28T15:46:32.433Z,60.67
2022-11-28T15:49:01.614Z,68.18
2022-11-28T15:51:32.821Z,64.90
2022-11-28T15:54:00.797Z,62.83
2022-11-28T15:56:28.274Z,58.97
2022-11-28T15:58:56.704Z,62.40
2022-11-28T16:01:27.136Z,66.32
2022-11-28T16:03:59.609Z,60.55
2022-11-28T16:06:31.138Z,64.00
2022-11-28T16:09:05.368Z,57.08
2022-11-28T16:11:35.611Z,61.40
2022-11-28T16:14:09.200Z,59.50
2022-11-28T16:16:38.747Z,56.63
2022-11-28T16:19:09.200Z,56.85
2022-11-28T16:21:44.434Z,55.55
2022-11-28T16:24:38.566Z,50.38
2022-11-28T16:27:06.602Z,58.88
2022-11-28T16:29:36.143Z,48.40
2022-11-28T16:32:31.913Z,55.83
2022-11-28T16:35:02.649Z,50.65
2022-11-28T16:37:32.088Z,58.90
2022-11-28T16:40:13.799Z,48.00
2022-11-28T16:42:41.743Z,47.20
2022-11-28T16:45:22.226Z,54.05
2022-11-28T16:48:00.966Z,56.97
2022-11-28T16:50:28.411Z,55.10
2022-11-28T16:53:00.035Z,49.58
2022-11-28T16:58:19.992Z,52.67
2022-11-28T17:01:02.412Z,49.65
2022-11-28T17:03:51.277Z,58.17
2022-11-28T17:06:34.309Z,48.97
2022-11-28T17:09:02.399Z,54.08
2022-11-28T17:11:33.592Z,52.75
2022-11-28T17:14:05.314Z,54.15
2022-11-28T17:16:36.984Z,45.05
2022-11-28T17:19:05.081Z,51.58
2022-11-28T17:21:37.686Z,48.10
2022-11-28T17:24:05.582Z,48.72
2022-11-28T17:26:32.829Z,50.42
2022-11-28T17:29:00.807Z,46.28
2022-11-28T17:31:27.888Z,39.58
2022-11-28T17:33:55.271Z,51.00
2022-11-28T17:36:22.318Z,44.17
2022-11-28T17:38:49.782Z,55.38
2022-11-28T17:41:16.704Z,49.97
2022-11-28T17:43:43.964Z,52.42
2022-11-28T17:46:11.390Z,50.88
2022-11-28T17:48:38.943Z,44.17
2022-11-28T17:51:06.223Z,47.95
2022-11-28T17:53:34.244Z,41.35
2022-11-28T17:56:01.220Z,49.05
2022-11-28T17:58:29.286Z,49.20
2022-11-28T18:01:00.595Z,45.40
2022-11-28T18:03:29.361Z,47.17
2022-11-28T18:05:56.392Z,51.95
2022-11-28T18:08:23.858Z,55.00
2022-11-28T18:11:03.141Z,49.78
2022-11-28T18:13:30.778Z,55.13
2022-11-28T18:15:58.401Z,53.05
2022-11-28T18:18:26.351Z,58.58
2022-11-28T18:20:53.376Z,57.90
2022-11-28T18:23:22.087Z,49.40
2022-11-28T18:25:49.291Z,57.38
2022-11-28T18:28:18.967Z,51.42
2022-11-28T18:30:48.353Z,51.22
2022-11-28T18:33:16.316Z,48.85
2022-11-28T18:35:43.769Z,53.83
2022-11-28T18:38:12.095Z,49.78
2022-11-28T18:40:39.692Z,50.30
2022-11-28T18:43:07.320Z,58.45
2022-11-28T18:45:35.267Z,57.22
2022-11-28T18:48:03.336Z,54.55
2022-11-28T18:50:31.059Z,49.70
2022-11-28T18:52:58.668Z,59.58
2022-11-28T18:55:26.388Z,58.78
2022-11-28T18:57:54.365Z,55.10
2022-11-28T19:00:21.932Z,51.47
2022-11-28T19:02:49.465Z,59.40
2022-11-28T19:05:16.628Z,53.95
2022-11-28T19:07:43.995Z,55.05
2022-11-28T19:10:12.112Z,55.40
2022-11-28T19:12:39.545Z,55.30
2022-11-28T19:15:06.878Z,44.45
2022-11-28T19:17:34.561Z,58.03
2022-11-28T19:20:01.532Z,42.65
2022-11-28T19:22:29.008Z,52.58
2022-11-28T19:24:56.841Z,56.03
2022-11-28T19:27:24.358Z,55.88
2022-11-28T19:29:53.064Z,53.05
2022-11-28T19:32:20.751Z,58.53
2022-11-28T19:34:52.289Z,58.47
2022-11-28T19:37:20.548Z,49.03
2022-11-28T19:39:47.968Z,54.05
2022-11-28T19:42:16.432Z,55.40
2022-11-28T19:44:43.899Z,48.78
2022-11-28T19:47:11.237Z,53.15
2022-11-28T19:49:38.301Z,52.30
2022-11-28T19:52:06.186Z,44.75
2022-11-28T19:54:34.179Z,44.55
2022-11-28T19:57:02.487Z,54.70
2022-11-28T19:59:31.356Z,47.80
2022-11-28T20:01:58.914Z,47.72
2022-11-28T20:04:26.182Z,42.78
2022-11-28T20:06:53.660Z,40.25
2022-11-28T20:09:20.727Z,44.67
2022-11-28T20:11:48.432Z,46.92
2022-11-28T20:14:17.791Z,50.38
2022-11-28T20:16:45.815Z,53.03
2022-11-28T20:19:15.188Z,48.45
2022-11-28T20:21:46.130Z,55.92
2022-11-28T20:24:14.386Z,40.08
2022-11-28T20:26:44.099Z,46.10
2022-11-28T20:29:16.195Z,33.40
2022-11-28T20:31:47.793Z,44.63
2022-11-28T20:34:18.396Z,43.63
2022-11-28T20:36:51.401Z,43.20
2022-11-28T20:39:18.952Z,31.75
2022-11-28T20:41:46.279Z,42.95
2022-11-28T20:44:13.341Z,45.47
2022-11-28T20:46:40.645Z,44.67
2022-11-28T20:49:07.770Z,46.83
2022-11-28T20:51:35.900Z,43.58
2022-11-28T20:54:04.930Z,47.15
2022-11-28T20:56:51.527Z,48.17
2022-11-28T20:59:22.324Z,40.78
2022-11-28T21:01:49.522Z,43.35
2022-11-28T21:04:17.698Z,38.60
2022-11-28T21:06:47.259Z,35.05
2022-11-28T21:09:14.851Z,37.15
2022-11-28T21:11:56.832Z,42.38
2022-11-28T21:14:24.307Z,39.83
2022-11-28T21:16:51.768Z,37.85
2022-11-28T21:19:18.696Z,40.85
2022-11-28T21:21:45.784Z,40.38
2022-11-28T21:24:13.945Z,37.03
2022-11-28T21:26:45.340Z,37.60
2022-11-28T21:29:14.855Z,38.65
2022-11-28T21:31:43.823Z,38.42
2022-11-28T21:34:15.599Z,38.03
2022-11-28T21:36:43.561Z,36.75
2022-11-28T21:39:13.856Z,32.03
2022-11-28T21:41:41.161Z,36.37
2022-11-28T21:44:08.818Z,38.00
2022-11-28T21:46:36.400Z,37.05
2022-11-28T21:49:03.388Z,37.75
2022-11-28T21:51:30.710Z,34.92
2022-11-28T21:53:58.165Z,34.65
2022-11-28T21:56:25.881Z,34.97
2022-11-28T21:58:53.987Z,34.92
2022-11-28T22:01:22.214Z,38.75
2022-11-28T22:03:49.451Z,34.28
2022-11-28T22:06:20.443Z,35.53
2022-11-28T22:08:49.017Z,27.42
2022-11-28T22:11:16.581Z,31.25
2022-11-28T22:13:47.913Z,29.83
2022-11-28T22:16:20.519Z,31.67
2022-11-28T22:18:50.185Z,29.90
2022-11-28T22:21:50.547Z,35.83
2022-11-28T22:24:08.250Z,32.00
2022-11-28T22:26:35.888Z,34.95
2022-11-28T22:29:04.286Z,31.88
2022-11-28T22:31:33.064Z,33.42
2022-11-28T22:34:00.305Z,40.85
2022-11-28T22:36:27.814Z,31.33
2022-11-28T22:38:57.837Z,34.60
2022-11-28T22:41:29.426Z,37.60
2022-11-28T22:44:00.917Z,36.97
2022-11-28T22:46:31.140Z,38.08
2022-11-28T22:49:00.968Z,37.70
2022-11-28T22:51:29.361Z,36.40
2022-11-28T22:53:59.004Z,38.30
2022-11-28T22:56:29.456Z,32.15
2022-11-28T22:58:59.078Z,34.58
2022-11-28T23:01:30.224Z,34.70
2022-11-28T23:03:58.355Z,36.35
2022-11-28T23:06:28.213Z,37.53
2022-11-28T23:08:56.258Z,33.30
2022-11-28T23:11:27.662Z,35.35
2022-11-28T23:13:55.476Z,36.55
2022-11-28T23:16:27.079Z,33.35
2022-11-28T23:18:56.430Z,37.15
2022-11-28T23:21:25.170Z,38.38
2022-11-28T23:23:52.558Z,36.70
2022-11-28T23:26:23.547Z,35.03
2022-11-28T23:28:51.103Z,33.17
2022-11-28T23:31:27.776Z,35.50
2022-11-28T23:33:55.842Z,33.70
2022-11-28T23:36:41.448Z,32.05
2022-11-28T23:39:20.918Z,35.30
2022-11-28T23:41:50.093Z,39.40
2022-11-28T23:44:18.969Z,33.03
2022-11-28T23:46:47.246Z,32.72
2022-11-28T23:49:14.892Z,32.50
2022-11-28T23:51:42.467Z,36.63
2022-11-28T23:54:10.973Z,36.80
2022-11-28T23:56:39.892Z,31.85
2022-11-28T23:59:09.143Z,39.95
